createdAt,value
2022-09-18T00:00:16.498Z,8.00
2022-09-18T00:02:44.774Z,8.07
2022-09-18T00:05:16.271Z,7.88
2022-09-18T00:07:44.261Z,8.02
2022-09-18T00:10:18.523Z,8.13
2022-09-18T00:12:46.494Z,8.06
2022-09-18T00:15:14.518Z,8.07
2022-09-18T00:17:42.619Z,8.09
2022-09-18T00:20:14.479Z,8.01
2022-09-18T00:22:43.749Z,8.18
2022-09-18T00:25:16.878Z,8.11
2022-09-18T00:27:44.901Z,8.32
2022-09-18T00:30:28.399Z,8.44
2022-09-18T00:33:03.363Z,8.38
2022-09-18T00:35:43.087Z,8.51
2022-09-18T00:38:13.621Z,8.53
2022-09-18T00:40:42.128Z,8.72
2022-09-18T00:43:21.949Z,8.61
2022-09-18T00:45:56.036Z,8.64
2022-09-18T00:48:29.278Z,8.66
2022-09-18T00:50:57.673Z,8.62
2022-09-18T00:53:27.377Z,8.40
2022-09-18T00:55:55.957Z,8.46
2022-09-18T00:58:33.122Z,8.22
2022-09-18T01:01:01.590Z,8.25
2022-09-18T01:03:30.999Z,8.11
2022-09-18T01:06:11.860Z,8.25
2022-09-18T01:08:54.757Z,8.34
2022-09-18T01:11:42.722Z,8.46
2022-09-18T01:14:26.635Z,8.50
2022-09-18T01:17:00.052Z,8.61
2022-09-18T01:19:45.540Z,8.55
2022-09-18T01:22:27.941Z,8.64
2022-09-18T01:25:18.414Z,8.66
2022-09-18T01:28:12.958Z,8.62
2022-09-18T01:30:56.274Z,8.72
2022-09-18T01:33:33.220Z,8.88
2022-09-18T01:36:06.804Z,8.85
2022-09-18T01:38:47.036Z,8.65
2022-09-18T01:41:21.803Z,8.73
2022-09-18T01:44:01.498Z,8.73
2022-09-18T01:46:33.848Z,8.89
2022-09-18T01:49:12.252Z,8.78
2022-09-18T01:51:49.353Z,8.76
2022-09-18T01:54:24.854Z,8.73
2022-09-18T01:57:02.995Z,8.53
2022-09-18T01:59:41.819Z,8.47
2022-09-18T02:02:18.704Z,8.72
2022-09-18T02:05:15.334Z,8.59
2022-09-18T02:07:53.948Z,8.72
2022-09-18T02:10:33.722Z,8.72
2022-09-18T02:13:12.318Z,8.66
2022-09-18T02:15:47.161Z,8.66
2022-09-18T02:18:24.895Z,8.64
2022-09-18T02:20:56.493Z,8.68
2022-09-18T02:23:26.817Z,8.55
2022-09-18T02:26:01.663Z,8.70
2022-09-18T02:28:39.032Z,8.65
2022-09-18T02:31:20.335Z,8.56
2022-09-18T02:33:54.079Z,8.63
2022-09-18T02:36:53.009Z,8.74
2022-09-18T02:39:38.588Z,8.86
2022-09-18T02:42:20.998Z,8.67
2022-09-18T02:45:07.049Z,8.81
2022-09-18T02:48:09.460Z,8.82
2022-09-18T02:50:50.877Z,8.94
2022-09-18T02:53:26.697Z,8.98
2022-09-18T02:56:04.008Z,8.98
2022-09-18T02:58:43.769Z,8.83
2022-09-18T03:01:17.308Z,8.90
2022-09-18T03:03:47.081Z,9.09
2022-09-18T03:06:18.458Z,9.16
2022-09-18T03:08:46.579Z,9.08
2022-09-18T03:11:18.285Z,9.16
2022-09-18T03:13:46.497Z,9.38
2022-09-18T03:16:14.497Z,9.28
2022-09-18T03:18:45.354Z,9.30
2022-09-18T03:21:14.902Z,9.34
2022-09-18T03:23:45.532Z,9.39
2022-09-18T03:26:14.247Z,9.25
2022-09-18T03:28:42.480Z,9.19
2022-09-18T03:31:11.607Z,9.10
2022-09-18T03:33:40.076Z,9.18
2022-09-18T03:36:09.543Z,9.21
2022-09-18T03:38:40.142Z,9.26
2022-09-18T03:41:08.447Z,9.31
2022-09-18T03:43:36.498Z,9.27
2022-09-18T03:46:04.510Z,9.34
2022-09-18T03:48:32.567Z,9.32
2022-09-18T03:51:01.094Z,9.24
2022-09-18T03:53:29.415Z,9.10
2022-09-18T03:55:58.914Z,9.11
2022-09-18T03:58:27.153Z,9.14
2022-09-18T04:00:55.648Z,9.00
2022-09-18T04:03:23.791Z,9.03
2022-09-18T04:05:52.074Z,9.20
2022-09-18T04:08:26.189Z,9.14
2022-09-18T04:10:54.341Z,9.10
2022-09-18T04:13:24.258Z,9.24
2022-09-18T04:15:53.747Z,9.17
2022-09-18T04:18:27.464Z,9.19
2022-09-18T04:20:55.859Z,9.19
2022-09-18T04:23:24.030Z,9.11
2022-09-18T04:25:52.108Z,9.16
2022-09-18T04:28:24.864Z,9.04
2022-09-18T04:30:54.212Z,8.95
2022-09-18T04:33:22.159Z,9.02
2022-09-18T04:35:50.841Z,9.01
2022-09-18T04:38:19.537Z,9.08
2022-09-18T04:40:55.523Z,9.20
2022-09-18T04:43:26.477Z,9.21
2022-09-18T04:45:54.480Z,9.31
2022-09-18T04:48:23.170Z,9.11
2022-09-18T04:50:52.677Z,9.09
2022-09-18T04:53:21.184Z,9.20
2022-09-18T04:55:50.164Z,9.30
2022-09-18T04:58:18.795Z,9.34
2022-09-18T05:00:49.996Z,9.22
2022-09-18T05:03:27.251Z,9.27
2022-09-18T05:05:56.305Z,9.14
2022-09-18T05:08:27.422Z,9.30
2022-09-18T05:10:55.309Z,9.29
2022-09-18T05:13:24.591Z,9.45
2022-09-18T05:15:57.407Z,9.39
2022-09-18T05:18:25.649Z,9.54
2022-09-18T05:20:55.106Z,9.48
2022-09-18T05:23:23.433Z,9.47
2022-09-18T05:25:51.469Z,9.52
2022-09-18T05:28:20.085Z,9.53
2022-09-18T05:30:48.366Z,9.61
2022-09-18T05:33:17.882Z,9.53
2022-09-18T05:35:45.925Z,9.67
2022-09-18T05:38:13.966Z,9.58
2022-09-18T05:40:42.016Z,9.71
2022-09-18T05:43:11.616Z,9.62
2022-09-18T05:45:40.562Z,9.76
2022-09-18T05:48:12.250Z,9.74
2022-09-18T05:50:42.253Z,9.50
2022-09-18T05:53:13.419Z,9.63
2022-09-18T05:55:42.707Z,9.65
2022-09-18T05:58:15.709Z,9.63
2022-09-18T06:00:44.876Z,9.58
2022-09-18T06:03:15.313Z,9.56
2022-09-18T06:05:52.241Z,9.71
2022-09-18T06:08:20.994Z,9.70
2022-09-18T06:10:49.230Z,9.76
2022-09-18T06:13:19.861Z,9.80
2022-09-18T06:15:49.540Z,9.83
2022-09-18T06:18:17.869Z,9.80
2022-09-18T06:20:54.234Z,9.80
2022-09-18T06:23:24.577Z,9.76
2022-09-18T06:25:59.392Z,9.87
2022-09-18T06:28:27.839Z,9.81
2022-09-18T06:30:57.558Z,9.86
2022-09-18T06:33:26.190Z,9.76
2022-09-18T06:35:56.928Z,9.70
2022-09-18T06:38:25.116Z,9.64
2022-09-18T06:40:55.634Z,9.86
2022-09-18T06:43:30.466Z,9.77
2022-09-18T06:46:02.634Z,9.69
2022-09-18T06:48:31.728Z,9.83
2022-09-18T06:51:01.108Z,9.84
2022-09-18T06:53:30.023Z,9.70
2022-09-18T06:56:02.489Z,9.86
2022-09-18T06:58:32.132Z,9.81
2022-09-18T07:01:02.659Z,9.95
2022-09-18T07:03:33.033Z,9.77
2022-09-18T07:06:02.702Z,9.83
2022-09-18T07:08:31.729Z,9.98
2022-09-18T07:11:03.904Z,10.02
2022-09-18T07:13:33.273Z,9.96
2022-09-18T07:16:01.978Z,10.06
2022-09-18T07:18:30.108Z,10.10
2022-09-18T07:21:02.956Z,10.06
2022-09-18T07:23:33.407Z,10.11
2022-09-18T07:26:02.820Z,10.08
2022-09-18T07:28:30.872Z,10.26
2022-09-18T07:31:06.039Z,10.07
2022-09-18T07:33:35.393Z,9.95
2022-09-18T07:36:05.069Z,10.23
2022-09-18T07:38:36.358Z,10.05
2022-09-18T07:41:05.371Z,10.03
2022-09-18T07:43:33.818Z,10.07
2022-09-18T07:46:04.648Z,10.11
2022-09-18T07:48:32.940Z,10.13
2022-09-18T07:51:03.529Z,10.02
2022-09-18T07:53:31.402Z,9.94
2022-09-18T07:56:08.430Z,10.02
2022-09-18T07:58:36.830Z,10.03
2022-09-18T08:01:06.302Z,10.11
2022-09-18T08:03:39.132Z,9.98
2022-09-18T08:06:09.725Z,10.17
2022-09-18T08:08:46.589Z,10.08
2022-09-18T08:11:16.965Z,10.22
2022-09-18T08:13:44.961Z,10.17
2022-09-18T08:16:13.783Z,10.18
2022-09-18T08:18:44.420Z,10.28
2022-09-18T08:21:13.014Z,10.32
2022-09-18T08:23:41.207Z,10.34
2022-09-18T08:26:09.362Z,10.45
2022-09-18T08:28:38.789Z,10.49
2022-09-18T08:31:07.759Z,10.36
2022-09-18T08:33:35.904Z,10.38
2022-09-18T08:36:08.001Z,10.35
2022-09-18T08:38:40.397Z,10.38
2022-09-18T08:41:26.374Z,10.32
2022-09-18T08:44:08.841Z,10.39
2022-09-18T08:46:42.217Z,10.46
2022-09-18T08:49:23.369Z,10.49
2022-09-18T08:51:59.103Z,10.40
2022-09-18T08:54:45.433Z,10.26
2022-09-18T08:57:19.342Z,10.24
2022-09-18T08:59:53.383Z,10.35
2022-09-18T09:02:34.755Z,10.29
2022-09-18T09:05:11.804Z,10.26
2022-09-18T09:08:21.291Z,10.25
2022-09-18T09:11:00.287Z,10.53
2022-09-18T09:13:58.070Z,10.62
2022-09-18T09:16:38.738Z,10.62
2022-09-18T09:19:18.355Z,10.71
2022-09-18T09:22:02.203Z,10.50
2022-09-18T09:24:37.241Z,10.64
2022-09-18T09:27:19.422Z,10.54
2022-09-18T09:29:52.140Z,10.50
2022-09-18T09:32:32.669Z,10.49
2022-09-18T09:35:18.690Z,10.49
2022-09-18T09:37:49.841Z,10.46
2022-09-18T09:40:24.514Z,10.29
2022-09-18T09:42:57.921Z,10.26
2022-09-18T09:45:32.045Z,10.39
2022-09-18T09:48:13.306Z,10.30
2022-09-18T09:50:57.307Z,10.21
2022-09-18T09:53:29.167Z,10.32
2022-09-18T09:56:08.631Z,10.26
2022-09-18T09:58:46.589Z,10.16
2022-09-18T10:01:22.865Z,10.36
2022-09-18T10:04:10.212Z,10.29
2022-09-18T10:06:51.494Z,10.27
2022-09-18T10:09:29.000Z,10.25
2022-09-18T10:12:17.045Z,10.45
2022-09-18T10:14:50.040Z,10.51
2022-09-18T10:17:21.085Z,10.41
2022-09-18T10:19:50.887Z,10.42
2022-09-18T10:22:23.323Z,10.67
2022-09-18T10:24:56.755Z,10.58
2022-09-18T10:27:29.094Z,10.75
2022-09-18T10:29:57.221Z,10.70
2022-09-18T10:32:36.705Z,10.86
2022-09-18T10:35:37.082Z,10.65
2022-09-18T10:38:28.778Z,10.96
2022-09-18T10:41:16.105Z,10.75
2022-09-18T10:44:36.813Z,11.05
2022-09-18T10:47:09.205Z,10.90
2022-09-18T10:49:41.946Z,10.97
2022-09-18T10:52:32.111Z,11.06
2022-09-18T10:55:12.679Z,11.29
2022-09-18T10:57:44.635Z,11.23
2022-09-18T11:00:43.488Z,11.45
2022-09-18T11:03:39.688Z,11.43
2022-09-18T11:06:24.574Z,11.31
2022-09-18T11:09:11.107Z,11.51
2022-09-18T11:11:51.301Z,11.45
2022-09-18T11:14:34.081Z,11.82
2022-09-18T11:17:28.299Z,11.57
2022-09-18T11:20:56.844Z,11.68
2022-09-18T11:23:36.697Z,11.60
2022-09-18T11:41:39.564Z,12.34
2022-09-18T11:44:35.900Z,12.48
2022-09-18T11:47:38.864Z,12.17
2022-09-18T11:50:25.467Z,12.48
2022-09-18T11:53:05.544Z,12.76
2022-09-18T11:55:41.469Z,12.45
2022-09-18T11:58:16.966Z,12.44
2022-09-18T12:00:48.804Z,12.73
2022-09-18T12:03:24.744Z,12.93
2022-09-18T12:06:26.961Z,12.85
2022-09-18T12:09:21.368Z,12.59
2022-09-18T12:12:02.813Z,12.48
2022-09-18T12:14:52.246Z,12.78
2022-09-18T12:17:42.149Z,12.90
2022-09-18T12:23:14.105Z,12.87
2022-09-18T12:25:56.830Z,12.94
2022-09-18T12:28:42.709Z,12.94
2022-09-18T12:31:17.653Z,13.02
2022-09-18T12:34:20.564Z,12.81
2022-09-18T12:37:37.144Z,12.88
2022-09-18T12:40:45.626Z,12.83
2022-09-18T12:43:50.566Z,13.22
2022-09-18T12:47:03.367Z,12.97
2022-09-18T12:49:55.107Z,13.20
2022-09-18T12:53:08.284Z,13.17
2022-09-18T12:56:26.177Z,13.01
2022-09-18T13:03:35.245Z,13.48
2022-09-18T13:06:12.335Z,13.57
2022-09-18T13:09:01.845Z,13.60
2022-09-18T13:11:33.816Z,13.57
2022-09-18T13:14:08.543Z,13.49
2022-09-18T13:16:48.354Z,13.56
2022-09-18T13:19:33.699Z,13.32
2022-09-18T13:22:15.268Z,13.26
2022-09-18T13:25:07.534Z,13.47
2022-09-18T13:27:42.172Z,13.44
2022-09-18T13:30:29.561Z,13.28
2022-09-18T13:33:00.493Z,13.19
2022-09-18T13:35:31.527Z,13.04
2022-09-18T13:38:28.567Z,13.30
2022-09-18T13:41:04.973Z,13.21
2022-09-18T13:43:42.048Z,13.31
2022-09-18T13:46:33.663Z,13.00
2022-09-18T13:49:17.484Z,13.23
2022-09-18T13:51:47.937Z,13.33
2022-09-18T13:54:35.432Z,13.85
2022-09-18T13:57:22.934Z,13.90
2022-09-18T14:00:01.186Z,13.70
2022-09-18T14:02:35.684Z,13.45
2022-09-18T14:05:26.054Z,13.65
2022-09-18T14:08:30.980Z,13.69
2022-09-18T14:11:16.123Z,13.64
2022-09-18T14:13:54.395Z,13.89
2022-09-18T14:16:31.919Z,13.97
2022-09-18T14:19:04.753Z,13.77
2022-09-18T14:21:35.253Z,13.87
2022-09-18T14:24:06.523Z,13.68
2022-09-18T14:27:11.329Z,13.38
2022-09-18T14:29:41.146Z,12.23
2022-09-18T14:32:19.105Z,11.32
2022-09-18T14:34:55.407Z,10.83
2022-09-18T14:37:26.269Z,10.69
2022-09-18T14:39:58.006Z,10.69
2022-09-18T14:42:33.349Z,10.83
2022-09-18T14:45:22.079Z,10.68
2022-09-18T14:47:50.730Z,10.80
2022-09-18T14:50:31.940Z,10.80
2022-09-18T14:53:02.785Z,10.95
2022-09-18T14:55:35.958Z,10.86
2022-09-18T14:58:08.528Z,10.67
2022-09-18T15:00:39.599Z,10.71
2022-09-18T15:03:14.615Z,10.66
2022-09-18T15:05:44.138Z,10.75
2022-09-18T15:08:21.637Z,11.01
2022-09-18T15:10:53.669Z,10.93
2022-09-18T15:13:26.130Z,11.89
2022-09-18T15:16:04.394Z,12.91
2022-09-18T15:18:41.853Z,12.88
2022-09-18T15:21:23.153Z,12.69
2022-09-18T15:23:52.191Z,13.26
2022-09-18T15:26:26.013Z,12.97
2022-09-18T15:28:55.896Z,12.35
2022-09-18T15:31:31.461Z,12.21
2022-09-18T15:34:03.461Z,12.23
2022-09-18T15:36:35.894Z,12.08
2022-09-18T15:39:07.288Z,12.34
2022-09-18T15:41:52.691Z,12.70
2022-09-18T15:44:59.822Z,12.87
2022-09-18T15:47:37.116Z,12.82
2022-09-18T15:50:33.817Z,12.85
2022-09-18T15:53:14.474Z,12.87
2022-09-18T15:55:54.263Z,12.66
2022-09-18T15:58:45.029Z,12.28
2022-09-18T16:01:22.805Z,12.36
2022-09-18T16:04:08.725Z,12.51
2022-09-18T16:06:50.879Z,12.48
2022-09-18T16:09:37.723Z,12.59
2022-09-18T16:12:27.823Z,12.41
2022-09-18T16:15:17.511Z,12.21
2022-09-18T16:18:06.424Z,12.26
2022-09-18T16:20:41.791Z,12.18
2022-09-18T16:23:28.956Z,12.07
2022-09-18T16:26:18.819Z,12.00
2022-09-18T16:28:50.559Z,12.01
2022-09-18T16:31:21.513Z,12.13
2022-09-18T16:33:59.389Z,12.18
2022-09-18T16:36:35.311Z,12.13
2022-09-18T16:39:07.900Z,12.11
2022-09-18T16:41:36.700Z,12.07
2022-09-18T16:44:10.928Z,12.09
2022-09-18T16:46:43.088Z,12.16
2022-09-18T16:49:17.329Z,12.18
2022-09-18T16:51:47.376Z,12.41
2022-09-18T16:54:16.024Z,12.25
2022-09-18T16:56:51.710Z,11.58
2022-09-18T16:59:22.926Z,11.17
2022-09-18T17:02:03.332Z,10.84
2022-09-18T17:04:32.753Z,10.70
2022-09-18T17:07:02.080Z,10.41
2022-09-18T17:09:30.344Z,10.41
2022-09-18T17:11:58.226Z,10.36
2022-09-18T17:14:27.543Z,10.13
2022-09-18T17:16:55.646Z,10.02
2022-09-18T17:19:23.733Z,10.19
2022-09-18T17:21:51.845Z,10.18
2022-09-18T17:24:25.549Z,10.16
2022-09-18T17:26:54.098Z,10.35
2022-09-18T17:29:22.157Z,10.21
2022-09-18T17:31:50.220Z,9.97
2022-09-18T17:34:22.081Z,9.85
2022-09-18T17:36:49.972Z,9.64
2022-09-18T17:39:18.281Z,9.44
2022-09-18T17:41:48.187Z,9.38
2022-09-18T17:44:16.387Z,9.41
2022-09-18T17:46:51.429Z,9.34
2022-09-18T17:49:20.467Z,9.56
2022-09-18T17:51:48.773Z,9.57
2022-09-18T17:54:16.992Z,9.68
2022-09-18T17:56:45.489Z,9.66
2022-09-18T17:59:18.328Z,9.75
2022-09-18T18:01:48.687Z,9.77
2022-09-18T18:04:16.974Z,9.76
2022-09-18T18:06:48.107Z,9.73
2022-09-18T18:09:16.546Z,9.68
2022-09-18T18:11:46.318Z,9.60
2022-09-18T18:14:16.032Z,9.48
2022-09-18T18:16:44.137Z,9.53
2022-09-18T18:19:13.105Z,9.53
2022-09-18T18:21:42.557Z,9.36
2022-09-18T18:24:15.031Z,9.53
2022-09-18T18:26:43.961Z,9.62
2022-09-18T18:29:14.048Z,9.59
2022-09-18T18:31:44.341Z,9.63
2022-09-18T18:34:13.582Z,9.59
2022-09-18T18:36:43.304Z,9.60
2022-09-18T18:39:13.104Z,9.58
2022-09-18T18:41:41.112Z,9.57
2022-09-18T18:44:09.432Z,9.68
2022-09-18T18:46:38.747Z,9.62
2022-09-18T18:49:10.101Z,9.65
2022-09-18T18:51:40.552Z,9.69
2022-09-18T18:54:08.608Z,9.85
2022-09-18T18:56:38.783Z,9.70
2022-09-18T18:59:09.053Z,9.63
2022-09-18T19:01:37.203Z,9.80
2022-09-18T19:04:08.417Z,9.83
2022-09-18T19:06:39.004Z,9.81
2022-09-18T19:09:09.211Z,9.83
2022-09-18T19:11:42.778Z,9.81
2022-09-18T19:14:14.156Z,9.86
2022-09-18T19:16:41.997Z,9.85
2022-09-18T19:19:11.777Z,9.99
2022-09-18T19:21:40.171Z,10.03
2022-09-18T19:24:10.183Z,10.11
2022-09-18T19:26:40.088Z,10.14
2022-09-18T19:29:12.213Z,10.09
2022-09-18T19:31:42.745Z,10.07
2022-09-18T19:34:13.326Z,10.13
2022-09-18T19:36:41.791Z,10.06
2022-09-18T19:39:13.098Z,9.96
2022-09-18T19:41:46.656Z,10.04
2022-09-18T19:44:19.164Z,9.97
2022-09-18T19:46:48.197Z,10.06
2022-09-18T19:49:19.661Z,10.05
2022-09-18T19:51:48.066Z,10.06
2022-09-18T19:54:16.113Z,10.15
2022-09-18T19:56:47.402Z,10.07
2022-09-18T19:59:15.430Z,10.05
2022-09-18T20:01:43.581Z,10.12
2022-09-18T20:04:11.671Z,10.17
2022-09-18T20:06:42.420Z,10.10
2022-09-18T20:09:10.803Z,10.28
2022-09-18T20:11:38.750Z,10.27
2022-09-18T20:14:06.805Z,10.27
2022-09-18T20:16:35.000Z,10.24
2022-09-18T20:19:02.976Z,10.28
2022-09-18T20:21:30.950Z,10.31
2022-09-18T20:24:02.105Z,10.32
2022-09-18T20:26:30.019Z,10.24
2022-09-18T20:28:58.146Z,10.30
2022-09-18T20:31:26.551Z,10.40
2022-09-18T20:33:58.389Z,10.41
2022-09-18T20:36:27.441Z,10.48
2022-09-18T20:38:57.881Z,10.53
2022-09-18T20:41:29.962Z,10.60
2022-09-18T20:44:05.046Z,10.64
2022-09-18T20:46:37.244Z,10.57
2022-09-18T20:49:06.389Z,10.69
2022-09-18T20:51:36.069Z,10.67
2022-09-18T20:54:08.198Z,10.55
2022-09-18T20:56:41.996Z,10.65
2022-09-18T20:59:10.713Z,10.62
2022-09-18T21:01:40.305Z,10.43
2022-09-18T21:04:09.653Z,10.57
2022-09-18T21:06:38.371Z,10.59
2022-09-18T21:09:09.322Z,10.56
2022-09-18T21:11:41.348Z,10.47
2022-09-18T21:14:12.333Z,10.52
2022-09-18T21:16:42.992Z,10.50
2022-09-18T21:19:12.759Z,10.51
2022-09-18T21:21:41.568Z,10.54
2022-09-18T21:24:10.018Z,10.49
2022-09-18T21:26:40.575Z,10.50
2022-09-18T21:29:13.725Z,10.48
2022-09-18T21:31:43.353Z,10.54
2022-09-18T21:34:13.040Z,10.51
2022-09-18T21:36:44.004Z,10.60
2022-09-18T21:39:13.757Z,10.67
2022-09-18T21:41:46.333Z,10.69
2022-09-18T21:44:16.105Z,10.73
2022-09-18T21:46:45.953Z,10.70
2022-09-18T21:49:16.080Z,10.64
2022-09-18T21:51:44.479Z,10.59
2022-09-18T21:54:15.692Z,10.69
2022-09-18T21:56:46.434Z,10.63
2022-09-18T21:59:14.491Z,10.71
2022-09-18T22:01:43.477Z,10.70
2022-09-18T22:04:12.064Z,10.78
2022-09-18T22:06:42.319Z,10.70
2022-09-18T22:09:12.589Z,10.85
2022-09-18T22:11:41.661Z,10.87
2022-09-18T22:14:14.141Z,10.90
2022-09-18T22:16:45.020Z,10.85
2022-09-18T22:19:12.914Z,10.80
2022-09-18T22:21:42.964Z,10.86
2022-09-18T22:24:12.688Z,10.78
2022-09-18T22:26:43.245Z,10.69
2022-09-18T22:29:16.778Z,10.82
2022-09-18T22:31:46.510Z,10.82
2022-09-18T22:34:16.564Z,10.81
2022-09-18T22:36:45.108Z,10.83
2022-09-18T22:39:13.069Z,10.83
2022-09-18T22:41:41.165Z,10.90
2022-09-18T22:44:09.888Z,10.76
2022-09-18T22:46:41.264Z,10.85
2022-09-18T22:49:10.189Z,10.84
2022-09-18T22:51:40.199Z,10.85
2022-09-18T22:54:08.999Z,10.72
2022-09-18T22:56:39.466Z,10.70
2022-09-18T22:59:08.663Z,10.79
2022-09-18T23:01:42.460Z,10.74
2022-09-18T23:04:11.071Z,10.75
2022-09-18T23:06:39.617Z,10.81
2022-09-18T23:09:07.740Z,10.83
2022-09-18T23:11:36.109Z,10.81
2022-09-18T23:14:06.172Z,10.72
2022-09-18T23:16:37.577Z,10.92
2022-09-18T23:19:10.286Z,10.88
2022-09-18T23:21:39.721Z,10.94
2022-09-18T23:24:09.469Z,10.87
2022-09-18T23:26:39.372Z,10.90
2022-09-18T23:29:08.575Z,10.83
2022-09-18T23:31:38.911Z,10.89
2022-09-18T23:34:11.630Z,10.90
2022-09-18T23:36:41.516Z,10.88
2022-09-18T23:39:14.003Z,10.85
2022-09-18T23:41:42.754Z,10.84
2022-09-18T23:44:12.936Z,10.89
2022-09-18T23:46:41.594Z,10.85
2022-09-18T23:49:12.246Z,10.83
2022-09-18T23:51:42.890Z,10.88
2022-09-18T23:54:16.586Z,10.89
2022-09-18T23:56:45.375Z,10.90
2022-09-18T23:59:14.766Z,10.86
